sensor_id;sensor_type;location;lat;lon;timestamp;P1;durP1;ratioP1;P2;durP2;ratioP2
8737;SDS011;4405;49.272;8.590;2023-03-19T00:00:14;8.23;;;6.70;;
8737;SDS011;4405;49.272;8.590;2023-03-19T00:02:41;9.27;;;6.20;;
8737;SDS011;4405;49.272;8.590;2023-03-19T00:05:13;11.07;;;7.33;;
8737;SDS011;4405;49.272;8.590;2023-03-19T00:07:41;9.17;;;7.63;;
8737;SDS011;4405;49.272;8.590;2023-03-19T00:10:08;9.87;;;7.27;;
8737;SDS011;4405;49.272;8.590;2023-03-19T00:12:34;10.17;;;6.90;;
8737;SDS011;4405;49.272;8.590;2023-03-19T00:15:01;7.27;;;6.00;;
8737;SDS011;4405;49.272;8.590;2023-03-19T00:17:27;7.77;;;5.93;;
8737;SDS011;4405;49.272;8.590;2023-03-19T00:19:53;6.97;;;5.73;;
8737;SDS011;4405;49.272;8.590;2023-03-19T00:22:20;9.00;;;5.50;;
8737;SDS011;4405;49.272;8.590;2023-03-19T00:24:47;8.40;;;5.73;;
8737;SDS011;4405;49.272;8.590;2023-03-19T00:27:14;8.03;;;5.53;;
8737;SDS011;4405;49.272;8.590;2023-03-19T00:29:40;8.23;;;5.73;;
8737;SDS011;4405;49.272;8.590;2023-03-19T00:32:06;8.27;;;5.60;;
8737;SDS011;4405;49.272;8.590;2023-03-19T00:34:33;6.67;;;5.97;;
8737;SDS011;4405;49.272;8.590;2023-03-19T00:36:59;8.50;;;6.43;;
8737;SDS011;4405;49.272;8.590;2023-03-19T00:39:26;8.33;;;6.67;;
8737;SDS011;4405;49.272;8.590;2023-03-19T00:41:54;7.13;;;6.40;;
8737;SDS011;4405;49.272;8.590;2023-03-19T00:44:20;9.13;;;6.87;;
8737;SDS011;4405;49.272;8.590;2023-03-19T00:46:46;10.53;;;6.77;;
8737;SDS011;4405;49.272;8.590;2023-03-19T00:49:13;9.33;;;6.43;;
8737;SDS011;4405;49.272;8.590;2023-03-19T00:51:39;10.87;;;7.07;;
8737;SDS011;4405;49.272;8.590;2023-03-19T00:54:09;7.50;;;6.23;;
8737;SDS011;4405;49.272;8.590;2023-03-19T00:56:35;9.27;;;6.80;;
8737;SDS011;4405;49.272;8.590;2023-03-19T00:59:03;12.30;;;7.47;;
8737;SDS011;4405;49.272;8.590;2023-03-19T01:01:29;11.27;;;7.27;;
8737;SDS011;4405;49.272;8.590;2023-03-19T01:03:56;8.13;;;6.37;;
8737;SDS011;4405;49.272;8.590;2023-03-19T01:06:22;8.00;;;5.80;;
8737;SDS011;4405;49.272;8.590;2023-03-19T01:08:49;7.40;;;6.10;;
8737;SDS011;4405;49.272;8.590;2023-03-19T01:11:15;5.83;;;5.30;;
8737;SDS011;4405;49.272;8.590;2023-03-19T01:13:42;6.30;;;5.10;;
8737;SDS011;4405;49.272;8.590;2023-03-19T01:16:10;7.07;;;5.70;;
8737;SDS011;4405;49.272;8.590;2023-03-19T01:18:36;10.13;;;5.57;;
8737;SDS011;4405;49.272;8.590;2023-03-19T01:21:03;7.70;;;6.03;;
8737;SDS011;4405;49.272;8.590;2023-03-19T01:23:30;6.27;;;5.67;;
8737;SDS011;4405;49.272;8.590;2023-03-19T01:25:56;5.50;;;4.87;;
8737;SDS011;4405;49.272;8.590;2023-03-19T01:28:23;6.90;;;5.00;;
8737;SDS011;4405;49.272;8.590;2023-03-19T01:30:49;5.17;;;4.63;;
8737;SDS011;4405;49.272;8.590;2023-03-19T01:33:17;6.93;;;4.87;;
8737;SDS011;4405;49.272;8.590;2023-03-19T01:35:45;6.63;;;5.17;;
8737;SDS011;4405;49.272;8.590;2023-03-19T01:38:13;6.13;;;4.90;;
8737;SDS011;4405;49.272;8.590;2023-03-19T01:40:42;6.17;;;4.90;;
8737;SDS011;4405;49.272;8.590;2023-03-19T01:43:12;5.93;;;4.80;;
8737;SDS011;4405;49.272;8.590;2023-03-19T01:45:40;11.53;;;4.90;;
8737;SDS011;4405;49.272;8.590;2023-03-19T01:48:07;6.23;;;5.27;;
8737;SDS011;4405;49.272;8.590;2023-03-19T01:50:43;8.27;;;5.30;;
8737;SDS011;4405;49.272;8.590;2023-03-19T01:53:10;6.00;;;4.80;;
8737;SDS011;4405;49.272;8.590;2023-03-19T01:55:37;7.43;;;4.70;;
8737;SDS011;4405;49.272;8.590;2023-03-19T01:58:04;10.67;;;4.77;;
8737;SDS011;4405;49.272;8.590;2023-03-19T02:00:31;6.93;;;5.40;;
8737;SDS011;4405;49.272;8.590;2023-03-19T02:02:59;5.30;;;4.60;;
8737;SDS011;4405;49.272;8.590;2023-03-19T02:05:27;5.33;;;4.67;;
8737;SDS011;4405;49.272;8.590;2023-03-19T02:07:55;7.13;;;4.97;;
8737;SDS011;4405;49.272;8.590;2023-03-19T02:10:23;5.13;;;4.63;;
8737;SDS011;4405;49.272;8.590;2023-03-19T02:12:50;6.07;;;4.43;;
8737;SDS011;4405;49.272;8.590;2023-03-19T02:15:16;5.07;;;4.57;;
8737;SDS011;4405;49.272;8.590;2023-03-19T02:17:43;4.60;;;4.20;;
8737;SDS011;4405;49.272;8.590;2023-03-19T02:20:11;5.10;;;4.07;;
8737;SDS011;4405;49.272;8.590;2023-03-19T02:22:42;5.17;;;4.60;;
8737;SDS011;4405;49.272;8.590;2023-03-19T02:25:13;4.83;;;4.37;;
8737;SDS011;4405;49.272;8.590;2023-03-19T02:27:42;7.53;;;4.27;;
8737;SDS011;4405;49.272;8.590;2023-03-19T02:30:18;4.47;;;3.87;;
8737;SDS011;4405;49.272;8.590;2023-03-19T02:32:45;4.60;;;4.20;;
8737;SDS011;4405;49.272;8.590;2023-03-19T02:35:11;4.53;;;4.10;;
8737;SDS011;4405;49.272;8.590;2023-03-19T02:37:38;4.30;;;3.90;;
8737;SDS011;4405;49.272;8.590;2023-03-19T02:40:05;4.30;;;3.90;;
8737;SDS011;4405;49.272;8.590;2023-03-19T02:42:32;5.17;;;4.67;;
8737;SDS011;4405;49.272;8.590;2023-03-19T02:45:00;6.03;;;4.30;;
8737;SDS011;4405;49.272;8.590;2023-03-19T02:47:27;4.90;;;4.50;;
8737;SDS011;4405;49.272;8.590;2023-03-19T02:49:53;4.93;;;4.23;;
8737;SDS011;4405;49.272;8.590;2023-03-19T02:52:20;7.00;;;4.50;;
8737;SDS011;4405;49.272;8.590;2023-03-19T02:54:46;6.10;;;4.30;;
8737;SDS011;4405;49.272;8.590;2023-03-19T02:57:12;5.20;;;4.40;;
8737;SDS011;4405;49.272;8.590;2023-03-19T02:59:39;5.73;;;4.30;;
8737;SDS011;4405;49.272;8.590;2023-03-19T03:02:07;4.83;;;4.17;;
8737;SDS011;4405;49.272;8.590;2023-03-19T03:04:34;4.83;;;4.33;;
8737;SDS011;4405;49.272;8.590;2023-03-19T03:07:01;5.23;;;4.17;;
8737;SDS011;4405;49.272;8.590;2023-03-19T03:09:27;5.57;;;3.90;;
8737;SDS011;4405;49.272;8.590;2023-03-19T03:11:54;4.40;;;3.97;;
8737;SDS011;4405;49.272;8.590;2023-03-19T03:14:20;8.13;;;4.23;;
8737;SDS011;4405;49.272;8.590;2023-03-19T03:16:46;6.87;;;4.33;;
8737;SDS011;4405;49.272;8.590;2023-03-19T03:19:14;6.77;;;4.60;;
8737;SDS011;4405;49.272;8.590;2023-03-19T03:21:40;4.97;;;4.47;;
8737;SDS011;4405;49.272;8.590;2023-03-19T03:24:07;5.23;;;4.63;;
8737;SDS011;4405;49.272;8.590;2023-03-19T03:26:33;6.13;;;4.40;;
8737;SDS011;4405;49.272;8.590;2023-03-19T03:29:02;4.30;;;3.90;;
8737;SDS011;4405;49.272;8.590;2023-03-19T03:31:29;5.23;;;4.20;;
8737;SDS011;4405;49.272;8.590;2023-03-19T03:33:55;4.87;;;4.37;;
8737;SDS011;4405;49.272;8.590;2023-03-19T03:36:23;5.27;;;3.97;;
8737;SDS011;4405;49.272;8.590;2023-03-19T03:38:49;6.03;;;4.07;;
8737;SDS011;4405;49.272;8.590;2023-03-19T03:41:15;5.23;;;3.80;;
8737;SDS011;4405;49.272;8.590;2023-03-19T03:43:42;4.17;;;3.77;;
8737;SDS011;4405;49.272;8.590;2023-03-19T03:46:08;4.87;;;3.97;;
8737;SDS011;4405;49.272;8.590;2023-03-19T03:48:35;4.30;;;3.90;;
8737;SDS011;4405;49.272;8.590;2023-03-19T03:51:02;7.17;;;4.63;;
8737;SDS011;4405;49.272;8.590;2023-03-19T03:53:30;3.87;;;3.57;;
8737;SDS011;4405;49.272;8.590;2023-03-19T03:55:57;6.57;;;3.97;;
8737;SDS011;4405;49.272;8.590;2023-03-19T03:58:23;4.10;;;3.70;;
8737;SDS011;4405;49.272;8.590;2023-03-19T04:00:50;4.07;;;3.77;;
8737;SDS011;4405;49.272;8.590;2023-03-19T04:03:16;3.63;;;3.33;;
8737;SDS011;4405;49.272;8.590;2023-03-19T04:05:43;3.83;;;3.50;;
8737;SDS011;4405;49.272;8.590;2023-03-19T04:08:09;3.63;;;3.33;;
8737;SDS011;4405;49.272;8.590;2023-03-19T04:10:39;5.07;;;3.87;;
8737;SDS011;4405;49.272;8.590;2023-03-19T04:13:06;5.67;;;3.73;;
8737;SDS011;4405;49.272;8.590;2023-03-19T04:15:32;5.10;;;4.00;;
8737;SDS011;4405;49.272;8.590;2023-03-19T04:17:59;5.30;;;3.67;;
8737;SDS011;4405;49.272;8.590;2023-03-19T04:20:25;4.03;;;3.70;;
8737;SDS011;4405;49.272;8.590;2023-03-19T04:22:52;4.40;;;3.83;;
8737;SDS011;4405;49.272;8.590;2023-03-19T04:25:18;4.73;;;3.73;;
8737;SDS011;4405;49.272;8.590;2023-03-19T04:27:46;3.83;;;3.53;;
8737;SDS011;4405;49.272;8.590;2023-03-19T04:30:12;5.40;;;3.43;;
8737;SDS011;4405;49.272;8.590;2023-03-19T04:32:39;3.90;;;3.50;;
8737;SDS011;4405;49.272;8.590;2023-03-19T04:35:06;4.20;;;3.77;;
8737;SDS011;4405;49.272;8.590;2023-03-19T04:37:32;6.37;;;3.80;;
8737;SDS011;4405;49.272;8.590;2023-03-19T04:39:58;3.80;;;3.50;;
8737;SDS011;4405;49.272;8.590;2023-03-19T04:42:25;7.03;;;5.97;;
8737;SDS011;4405;49.272;8.590;2023-03-19T04:44:52;4.87;;;4.37;;
8737;SDS011;4405;49.272;8.590;2023-03-19T04:47:19;3.80;;;3.50;;
8737;SDS011;4405;49.272;8.590;2023-03-19T04:49:45;6.47;;;4.60;;
8737;SDS011;4405;49.272;8.590;2023-03-19T04:52:12;6.97;;;6.30;;
8737;SDS011;4405;49.272;8.590;2023-03-19T04:54:39;4.53;;;4.10;;
8737;SDS011;4405;49.272;8.590;2023-03-19T04:57:05;5.90;;;3.93;;
8737;SDS011;4405;49.272;8.590;2023-03-19T04:59:31;5.77;;;3.60;;
8737;SDS011;4405;49.272;8.590;2023-03-19T05:01:59;4.60;;;4.00;;
8737;SDS011;4405;49.272;8.590;2023-03-19T05:04:25;4.57;;;3.77;;
8737;SDS011;4405;49.272;8.590;2023-03-19T05:06:52;3.93;;;3.60;;
8737;SDS011;4405;49.272;8.590;2023-03-19T05:09:18;4.60;;;3.43;;
8737;SDS011;4405;49.272;8.590;2023-03-19T05:11:44;4.27;;;3.60;;
8737;SDS011;4405;49.272;8.590;2023-03-19T05:14:10;3.83;;;3.50;;
8737;SDS011;4405;49.272;8.590;2023-03-19T05:16:37;4.77;;;3.80;;
8737;SDS011;4405;49.272;8.590;2023-03-19T05:19:05;3.90;;;3.60;;
8737;SDS011;4405;49.272;8.590;2023-03-19T05:21:32;5.23;;;3.80;;
8737;SDS011;4405;49.272;8.590;2023-03-19T05:23:58;4.83;;;4.07;;
8737;SDS011;4405;49.272;8.590;2023-03-19T05:26:25;5.20;;;4.23;;
8737;SDS011;4405;49.272;8.590;2023-03-19T05:28:51;3.70;;;3.40;;
8737;SDS011;4405;49.272;8.590;2023-03-19T05:31:17;4.30;;;3.80;;
8737;SDS011;4405;49.272;8.590;2023-03-19T05:33:44;5.70;;;4.03;;
8737;SDS011;4405;49.272;8.590;2023-03-19T05:36:13;4.27;;;3.97;;
8737;SDS011;4405;49.272;8.590;2023-03-19T05:38:40;4.43;;;4.03;;
8737;SDS011;4405;49.272;8.590;2023-03-19T05:41:06;5.90;;;4.03;;
8737;SDS011;4405;49.272;8.590;2023-03-19T05:43:32;5.40;;;3.93;;
8737;SDS011;4405;49.272;8.590;2023-03-19T05:45:59;5.23;;;4.73;;
8737;SDS011;4405;49.272;8.590;2023-03-19T05:48:26;6.03;;;4.37;;
8737;SDS011;4405;49.272;8.590;2023-03-19T05:50:52;5.47;;;4.10;;
8737;SDS011;4405;49.272;8.590;2023-03-19T05:53:20;4.70;;;4.13;;
8737;SDS011;4405;49.272;8.590;2023-03-19T05:55:47;5.77;;;4.10;;
8737;SDS011;4405;49.272;8.590;2023-03-19T05:58:13;5.03;;;3.60;;
8737;SDS011;4405;49.272;8.590;2023-03-19T06:00:40;5.87;;;4.20;;
8737;SDS011;4405;49.272;8.590;2023-03-19T06:03:07;4.07;;;3.70;;
8737;SDS011;4405;49.272;8.590;2023-03-19T06:05:34;3.50;;;3.30;;
8737;SDS011;4405;49.272;8.590;2023-03-19T06:08:01;4.20;;;3.80;;
8737;SDS011;4405;49.272;8.590;2023-03-19T06:10:29;3.60;;;3.40;;
8737;SDS011;4405;49.272;8.590;2023-03-19T06:12:56;4.33;;;3.73;;
8737;SDS011;4405;49.272;8.590;2023-03-19T06:15:22;3.83;;;3.53;;
8737;SDS011;4405;49.272;8.590;2023-03-19T06:17:48;4.77;;;3.70;;
8737;SDS011;4405;49.272;8.590;2023-03-19T06:20:15;3.80;;;3.50;;
8737;SDS011;4405;49.272;8.590;2023-03-19T06:22:41;3.80;;;3.43;;
8737;SDS011;4405;49.272;8.590;2023-03-19T06:25:08;5.13;;;3.80;;
8737;SDS011;4405;49.272;8.590;2023-03-19T06:27:36;4.70;;;3.83;;
8737;SDS011;4405;49.272;8.590;2023-03-19T06:30:03;3.93;;;3.60;;
8737;SDS011;4405;49.272;8.590;2023-03-19T06:32:29;4.00;;;3.67;;
8737;SDS011;4405;49.272;8.590;2023-03-19T06:34:56;5.50;;;4.80;;
8737;SDS011;4405;49.272;8.590;2023-03-19T06:37:22;6.47;;;5.63;;
8737;SDS011;4405;49.272;8.590;2023-03-19T06:39:49;7.90;;;5.90;;
8737;SDS011;4405;49.272;8.590;2023-03-19T06:42:18;7.63;;;6.47;;
8737;SDS011;4405;49.272;8.590;2023-03-19T06:44:46;5.17;;;4.70;;
8737;SDS011;4405;49.272;8.590;2023-03-19T06:47:13;6.60;;;4.80;;
8737;SDS011;4405;49.272;8.590;2023-03-19T06:49:39;4.60;;;4.20;;
8737;SDS011;4405;49.272;8.590;2023-03-19T06:52:06;4.50;;;4.10;;
8737;SDS011;4405;49.272;8.590;2023-03-19T06:54:32;4.87;;;3.77;;
8737;SDS011;4405;49.272;8.590;2023-03-19T06:56:58;3.87;;;3.20;;
8737;SDS011;4405;49.272;8.590;2023-03-19T06:59:25;5.23;;;3.80;;
8737;SDS011;4405;49.272;8.590;2023-03-19T07:01:53;3.93;;;3.50;;
8737;SDS011;4405;49.272;8.590;2023-03-19T07:04:19;3.93;;;3.43;;
8737;SDS011;4405;49.272;8.590;2023-03-19T07:06:45;6.00;;;3.73;;
8737;SDS011;4405;49.272;8.590;2023-03-19T07:09:12;4.00;;;3.50;;
8737;SDS011;4405;49.272;8.590;2023-03-19T07:11:39;4.10;;;3.20;;
8737;SDS011;4405;49.272;8.590;2023-03-19T07:14:06;3.63;;;3.33;;
8737;SDS011;4405;49.272;8.590;2023-03-19T07:16:32;5.17;;;3.63;;
8737;SDS011;4405;49.272;8.590;2023-03-19T07:19:00;4.00;;;3.43;;
8737;SDS011;4405;49.272;8.590;2023-03-19T07:21:27;3.60;;;3.30;;
8737;SDS011;4405;49.272;8.590;2023-03-19T07:23:54;5.93;;;4.07;;
8737;SDS011;4405;49.272;8.590;2023-03-19T07:26:20;3.70;;;3.40;;
8737;SDS011;4405;49.272;8.590;2023-03-19T07:28:47;4.80;;;3.63;;
8737;SDS011;4405;49.272;8.590;2023-03-19T07:31:13;4.47;;;3.80;;
8737;SDS011;4405;49.272;8.590;2023-03-19T07:33:40;4.30;;;4.00;;
8737;SDS011;4405;49.272;8.590;2023-03-19T07:36:08;4.07;;;3.77;;
8737;SDS011;4405;49.272;8.590;2023-03-19T07:38:35;4.63;;;3.80;;
8737;SDS011;4405;49.272;8.590;2023-03-19T07:41:01;4.40;;;4.00;;
8737;SDS011;4405;49.272;8.590;2023-03-19T07:43:28;4.90;;;4.40;;
8737;SDS011;4405;49.272;8.590;2023-03-19T07:45:54;4.97;;;3.90;;
8737;SDS011;4405;49.272;8.590;2023-03-19T07:48:21;6.77;;;4.27;;
8737;SDS011;4405;49.272;8.590;2023-03-19T07:50:48;5.67;;;5.07;;
8737;SDS011;4405;49.272;8.590;2023-03-19T07:53:16;5.40;;;4.90;;
8737;SDS011;4405;49.272;8.590;2023-03-19T07:55:42;4.53;;;4.13;;
8737;SDS011;4405;49.272;8.590;2023-03-19T07:58:09;4.70;;;4.30;;
8737;SDS011;4405;49.272;8.590;2023-03-19T08:00:35;5.50;;;4.73;;
8737;SDS011;4405;49.272;8.590;2023-03-19T08:03:02;5.43;;;4.90;;
8737;SDS011;4405;49.272;8.590;2023-03-19T08:05:28;8.57;;;7.30;;
8737;SDS011;4405;49.272;8.590;2023-03-19T08:07:54;5.93;;;5.33;;
8737;SDS011;4405;49.272;8.590;2023-03-19T08:10:22;5.03;;;4.60;;
8737;SDS011;4405;49.272;8.590;2023-03-19T08:12:48;4.57;;;4.17;;
8737;SDS011;4405;49.272;8.590;2023-03-19T08:15:15;4.80;;;4.27;;
8737;SDS011;4405;49.272;8.590;2023-03-19T08:17:41;4.80;;;3.77;;
8737;SDS011;4405;49.272;8.590;2023-03-19T08:20:08;4.17;;;3.77;;
8737;SDS011;4405;49.272;8.590;2023-03-19T08:22:36;3.50;;;3.20;;
8737;SDS011;4405;49.272;8.590;2023-03-19T08:25:03;4.63;;;3.10;;
8737;SDS011;4405;49.272;8.590;2023-03-19T08:27:32;5.20;;;3.60;;
8737;SDS011;4405;49.272;8.590;2023-03-19T08:29:59;3.63;;;3.30;;
8737;SDS011;4405;49.272;8.590;2023-03-19T08:32:26;3.03;;;2.83;;
8737;SDS011;4405;49.272;8.590;2023-03-19T08:34:52;4.60;;;3.57;;
8737;SDS011;4405;49.272;8.590;2023-03-19T08:37:19;2.77;;;2.57;;
8737;SDS011;4405;49.272;8.590;2023-03-19T08:39:45;4.60;;;2.70;;
8737;SDS011;4405;49.272;8.590;2023-03-19T08:42:12;3.27;;;2.87;;
8737;SDS011;4405;49.272;8.590;2023-03-19T08:44:39;3.30;;;2.63;;
8737;SDS011;4405;49.272;8.590;2023-03-19T08:47:06;2.90;;;2.70;;
8737;SDS011;4405;49.272;8.590;2023-03-19T08:49:32;6.93;;;2.90;;
8737;SDS011;4405;49.272;8.590;2023-03-19T08:51:58;2.90;;;2.70;;
8737;SDS011;4405;49.272;8.590;2023-03-19T08:54:25;3.03;;;2.73;;
8737;SDS011;4405;49.272;8.590;2023-03-19T08:56:51;3.07;;;2.70;;
8737;SDS011;4405;49.272;8.590;2023-03-19T08:59:18;2.53;;;2.33;;
8737;SDS011;4405;49.272;8.590;2023-03-19T09:01:46;2.80;;;2.20;;
8737;SDS011;4405;49.272;8.590;2023-03-19T09:04:15;3.10;;;2.17;;
8737;SDS011;4405;49.272;8.590;2023-03-19T09:06:41;2.50;;;2.30;;
8737;SDS011;4405;49.272;8.590;2023-03-19T09:09:07;3.70;;;2.17;;
8737;SDS011;4405;49.272;8.590;2023-03-19T09:11:34;2.70;;;2.50;;
8737;SDS011;4405;49.272;8.590;2023-03-19T09:14:00;2.33;;;2.20;;
8737;SDS011;4405;49.272;8.590;2023-03-19T09:16:26;4.37;;;2.60;;
8737;SDS011;4405;49.272;8.590;2023-03-19T09:18:55;5.37;;;2.23;;
8737;SDS011;4405;49.272;8.590;2023-03-19T09:21:21;2.43;;;2.33;;
8737;SDS011;4405;49.272;8.590;2023-03-19T09:23:48;2.83;;;2.27;;
8737;SDS011;4405;49.272;8.590;2023-03-19T09:26:16;2.20;;;2.07;;
8737;SDS011;4405;49.272;8.590;2023-03-19T09:28:42;2.87;;;2.43;;
8737;SDS011;4405;49.272;8.590;2023-03-19T09:31:08;3.80;;;2.50;;
8737;SDS011;4405;49.272;8.590;2023-03-19T09:33:35;3.07;;;2.57;;
8737;SDS011;4405;49.272;8.590;2023-03-19T09:36:03;2.30;;;2.17;;
8737;SDS011;4405;49.272;8.590;2023-03-19T09:38:30;2.27;;;2.13;;
8737;SDS011;4405;49.272;8.590;2023-03-19T09:41:01;3.40;;;2.50;;
8737;SDS011;4405;49.272;8.590;2023-03-19T09:43:36;3.80;;;2.30;;
8737;SDS011;4405;49.272;8.590;2023-03-19T09:46:08;2.77;;;2.50;;
8737;SDS011;4405;49.272;8.590;2023-03-19T09:48:38;2.83;;;2.37;;
8737;SDS011;4405;49.272;8.590;2023-03-19T09:51:09;2.93;;;2.20;;
8737;SDS011;4405;49.272;8.590;2023-03-19T09:53:42;2.97;;;2.37;;
8737;SDS011;4405;49.272;8.590;2023-03-19T09:56:12;2.60;;;2.40;;
8737;SDS011;4405;49.272;8.590;2023-03-19T09:58:40;4.53;;;2.57;;
8737;SDS011;4405;49.272;8.590;2023-03-19T10:01:10;2.50;;;2.37;;
8737;SDS011;4405;49.272;8.590;2023-03-19T10:03:42;5.20;;;2.57;;
8737;SDS011;4405;49.272;8.590;2023-03-19T10:11:56;4.07;;;2.63;;
8737;SDS011;4405;49.272;8.590;2023-03-19T10:17:09;2.37;;;2.17;;
8737;SDS011;4405;49.272;8.590;2023-03-19T10:19:38;2.87;;;2.67;;
8737;SDS011;4405;49.272;8.590;2023-03-19T10:22:07;3.07;;;2.77;;
8737;SDS011;4405;49.272;8.590;2023-03-19T10:24:36;4.00;;;2.60;;
8737;SDS011;4405;49.272;8.590;2023-03-19T10:27:08;3.17;;;2.60;;
8737;SDS011;4405;49.272;8.590;2023-03-19T10:29:37;4.00;;;2.40;;
8737;SDS011;4405;49.272;8.590;2023-03-19T10:32:06;2.63;;;2.30;;
8737;SDS011;4405;49.272;8.590;2023-03-19T10:34:37;2.53;;;2.33;;
8737;SDS011;4405;49.272;8.590;2023-03-19T10:37:12;3.27;;;2.53;;
8737;SDS011;4405;49.272;8.590;2023-03-19T10:39:39;2.20;;;2.10;;
8737;SDS011;4405;49.272;8.590;2023-03-19T10:42:12;2.67;;;2.17;;
8737;SDS011;4405;49.272;8.590;2023-03-19T10:44:44;2.20;;;2.10;;
8737;SDS011;4405;49.272;8.590;2023-03-19T10:47:13;3.27;;;2.17;;
8737;SDS011;4405;49.272;8.590;2023-03-19T10:49:41;3.00;;;2.43;;
8737;SDS011;4405;49.272;8.590;2023-03-19T10:52:15;2.57;;;2.37;;
8737;SDS011;4405;49.272;8.590;2023-03-19T10:54:42;3.63;;;2.50;;
8737;SDS011;4405;49.272;8.590;2023-03-19T10:57:19;3.83;;;2.70;;
8737;SDS011;4405;49.272;8.590;2023-03-19T10:59:46;9.70;;;8.70;;
8737;SDS011;4405;49.272;8.590;2023-03-19T11:02:14;5.17;;;2.30;;
8737;SDS011;4405;49.272;8.590;2023-03-19T11:04:41;2.53;;;2.20;;
8737;SDS011;4405;49.272;8.590;2023-03-19T11:07:08;2.30;;;2.20;;
8737;SDS011;4405;49.272;8.590;2023-03-19T11:09:36;5.63;;;2.37;;
8737;SDS011;4405;49.272;8.590;2023-03-19T11:12:06;5.33;;;2.60;;
8737;SDS011;4405;49.272;8.590;2023-03-19T11:14:35;3.50;;;2.67;;
8737;SDS011;4405;49.272;8.590;2023-03-19T11:17:03;6.50;;;2.23;;
8737;SDS011;4405;49.272;8.590;2023-03-19T11:19:31;3.20;;;2.20;;
8737;SDS011;4405;49.272;8.590;2023-03-19T11:22:00;2.30;;;2.17;;
8737;SDS011;4405;49.272;8.590;2023-03-19T11:24:27;3.03;;;2.57;;
8737;SDS011;4405;49.272;8.590;2023-03-19T11:26:56;2.60;;;2.40;;
8737;SDS011;4405;49.272;8.590;2023-03-19T11:29:23;2.37;;;2.13;;
8737;SDS011;4405;49.272;8.590;2023-03-19T11:31:54;4.60;;;2.53;;
8737;SDS011;4405;49.272;8.590;2023-03-19T11:34:24;2.83;;;2.57;;
8737;SDS011;4405;49.272;8.590;2023-03-19T11:36:53;3.13;;;2.50;;
8737;SDS011;4405;49.272;8.590;2023-03-19T11:39:24;3.97;;;2.50;;
8737;SDS011;4405;49.272;8.590;2023-03-19T11:42:06;3.87;;;2.30;;
8737;SDS011;4405;49.272;8.590;2023-03-19T11:44:38;2.57;;;2.37;;
8737;SDS011;4405;49.272;8.590;2023-03-19T11:47:10;3.00;;;2.03;;
8737;SDS011;4405;49.272;8.590;2023-03-19T11:49:41;2.07;;;1.97;;
8737;SDS011;4405;49.272;8.590;2023-03-19T11:52:15;2.07;;;1.87;;
8737;SDS011;4405;49.272;8.590;2023-03-19T11:54:46;2.83;;;2.03;;
8737;SDS011;4405;49.272;8.590;2023-03-19T11:57:21;2.30;;;2.20;;
8737;SDS011;4405;49.272;8.590;2023-03-19T12:00:02;2.37;;;1.90;;
8737;SDS011;4405;49.272;8.590;2023-03-19T12:02:40;3.57;;;2.23;;
8737;SDS011;4405;49.272;8.590;2023-03-19T12:05:16;2.23;;;1.90;;
8737;SDS011;4405;49.272;8.590;2023-03-19T12:07:45;2.20;;;2.00;;
8737;SDS011;4405;49.272;8.590;2023-03-19T12:10:23;2.00;;;1.90;;
8737;SDS011;4405;49.272;8.590;2023-03-19T12:12:52;2.10;;;1.93;;
8737;SDS011;4405;49.272;8.590;2023-03-19T12:15:23;2.23;;;1.70;;
8737;SDS011;4405;49.272;8.590;2023-03-19T12:17:57;2.97;;;2.03;;
8737;SDS011;4405;49.272;8.590;2023-03-19T12:20:26;2.63;;;1.80;;
8737;SDS011;4405;49.272;8.590;2023-03-19T12:22:58;2.50;;;2.10;;
8737;SDS011;4405;49.272;8.590;2023-03-19T12:25:28;2.50;;;1.97;;
8737;SDS011;4405;49.272;8.590;2023-03-19T12:27:58;2.13;;;1.93;;
8737;SDS011;4405;49.272;8.590;2023-03-19T12:30:31;2.20;;;2.03;;
8737;SDS011;4405;49.272;8.590;2023-03-19T12:33:05;4.20;;;2.20;;
8737;SDS011;4405;49.272;8.590;2023-03-19T12:35:35;3.90;;;2.30;;
8737;SDS011;4405;49.272;8.590;2023-03-19T12:38:03;3.73;;;2.40;;
8737;SDS011;4405;49.272;8.590;2023-03-19T12:40:31;2.97;;;2.07;;
8737;SDS011;4405;49.272;8.590;2023-03-19T12:43:00;2.57;;;2.00;;
8737;SDS011;4405;49.272;8.590;2023-03-19T12:45:29;2.47;;;2.27;;
8737;SDS011;4405;49.272;8.590;2023-03-19T12:47:57;2.20;;;2.10;;
8737;SDS011;4405;49.272;8.590;2023-03-19T12:50:26;2.60;;;2.03;;
8737;SDS011;4405;49.272;8.590;2023-03-19T12:52:54;2.57;;;2.37;;
8737;SDS011;4405;49.272;8.590;2023-03-19T12:55:24;3.13;;;2.37;;
8737;SDS011;4405;49.272;8.590;2023-03-19T12:57:52;2.27;;;2.10;;
8737;SDS011;4405;49.272;8.590;2023-03-19T13:00:21;2.30;;;2.10;;
8737;SDS011;4405;49.272;8.590;2023-03-19T13:02:52;3.93;;;2.37;;
8737;SDS011;4405;49.272;8.590;2023-03-19T13:05:24;2.57;;;2.30;;
8737;SDS011;4405;49.272;8.590;2023-03-19T13:07:56;3.07;;;2.17;;
8737;SDS011;4405;49.272;8.590;2023-03-19T13:10:24;2.37;;;2.17;;
8737;SDS011;4405;49.272;8.590;2023-03-19T13:12:51;2.40;;;2.20;;
8737;SDS011;4405;49.272;8.590;2023-03-19T13:15:20;3.00;;;2.30;;
8737;SDS011;4405;49.272;8.590;2023-03-19T13:17:52;2.87;;;2.10;;
8737;SDS011;4405;49.272;8.590;2023-03-19T13:20:23;4.93;;;2.40;;
8737;SDS011;4405;49.272;8.590;2023-03-19T13:22:52;3.03;;;2.20;;
8737;SDS011;4405;49.272;8.590;2023-03-19T13:25:21;2.40;;;1.93;;
8737;SDS011;4405;49.272;8.590;2023-03-19T13:27:51;3.40;;;1.70;;
8737;SDS011;4405;49.272;8.590;2023-03-19T13:30:19;3.13;;;2.20;;
8737;SDS011;4405;49.272;8.590;2023-03-19T13:32:47;1.87;;;1.77;;
8737;SDS011;4405;49.272;8.590;2023-03-19T13:35:20;2.97;;;2.03;;
8737;SDS011;4405;49.272;8.590;2023-03-19T13:37:50;2.23;;;2.10;;
8737;SDS011;4405;49.272;8.590;2023-03-19T13:40:41;2.97;;;2.00;;
8737;SDS011;4405;49.272;8.590;2023-03-19T13:45:50;3.10;;;1.70;;
8737;SDS011;4405;49.272;8.590;2023-03-19T13:48:34;3.80;;;2.30;;
8737;SDS011;4405;49.272;8.590;2023-03-19T13:51:01;2.13;;;2.00;;
8737;SDS011;4405;49.272;8.590;2023-03-19T13:53:36;3.10;;;2.03;;
8737;SDS011;4405;49.272;8.590;2023-03-19T13:56:04;3.10;;;2.30;;
8737;SDS011;4405;49.272;8.590;2023-03-19T13:58:43;2.97;;;2.00;;
8737;SDS011;4405;49.272;8.590;2023-03-19T14:01:35;1.70;;;1.60;;
8737;SDS011;4405;49.272;8.590;2023-03-19T14:04:02;1.33;;;1.33;;
8737;SDS011;4405;49.272;8.590;2023-03-19T14:06:30;2.13;;;1.60;;
8737;SDS011;4405;49.272;8.590;2023-03-19T14:08:57;2.87;;;1.73;;
8737;SDS011;4405;49.272;8.590;2023-03-19T14:11:27;1.33;;;1.30;;
8737;SDS011;4405;49.272;8.590;2023-03-19T14:13:54;1.50;;;1.40;;
8737;SDS011;4405;49.272;8.590;2023-03-19T14:16:24;2.03;;;1.60;;
8737;SDS011;4405;49.272;8.590;2023-03-19T14:18:54;2.30;;;1.40;;
8737;SDS011;4405;49.272;8.590;2023-03-19T14:21:30;1.83;;;1.70;;
8737;SDS011;4405;49.272;8.590;2023-03-19T14:24:18;1.50;;;1.40;;
8737;SDS011;4405;49.272;8.590;2023-03-19T14:26:45;1.50;;;1.37;;
8737;SDS011;4405;49.272;8.590;2023-03-19T14:29:12;1.37;;;1.37;;
8737;SDS011;4405;49.272;8.590;2023-03-19T14:31:40;1.50;;;1.50;;
8737;SDS011;4405;49.272;8.590;2023-03-19T14:34:14;1.77;;;1.50;;
8737;SDS011;4405;49.272;8.590;2023-03-19T14:36:43;1.60;;;1.50;;
8737;SDS011;4405;49.272;8.590;2023-03-19T14:39:12;1.33;;;1.33;;
8737;SDS011;4405;49.272;8.590;2023-03-19T14:41:42;1.43;;;1.30;;
8737;SDS011;4405;49.272;8.590;2023-03-19T14:47:18;1.33;;;1.33;;
8737;SDS011;4405;49.272;8.590;2023-03-19T14:49:52;1.70;;;1.60;;
8737;SDS011;4405;49.272;8.590;2023-03-19T14:52:21;1.57;;;1.47;;
8737;SDS011;4405;49.272;8.590;2023-03-19T14:54:48;2.50;;;1.90;;
8737;SDS011;4405;49.272;8.590;2023-03-19T14:57:16;2.63;;;1.50;;
8737;SDS011;4405;49.272;8.590;2023-03-19T14:59:43;1.90;;;1.80;;
8737;SDS011;4405;49.272;8.590;2023-03-19T15:02:22;1.87;;;1.50;;
8737;SDS011;4405;49.272;8.590;2023-03-19T15:04:50;2.53;;;1.50;;
8737;SDS011;4405;49.272;8.590;2023-03-19T15:07:18;3.90;;;1.70;;
8737;SDS011;4405;49.272;8.590;2023-03-19T15:09:44;1.73;;;1.60;;
8737;SDS011;4405;49.272;8.590;2023-03-19T15:12:20;1.70;;;1.60;;
8737;SDS011;4405;49.272;8.590;2023-03-19T15:15:07;28.50;;;14.77;;
8737;SDS011;4405;49.272;8.590;2023-03-19T15:17:38;1.80;;;1.70;;
8737;SDS011;4405;49.272;8.590;2023-03-19T15:20:12;1.73;;;1.40;;
8737;SDS011;4405;49.272;8.590;2023-03-19T15:22:39;1.40;;;1.30;;
8737;SDS011;4405;49.272;8.590;2023-03-19T15:25:05;1.40;;;1.40;;
8737;SDS011;4405;49.272;8.590;2023-03-19T15:27:33;1.70;;;1.60;;
8737;SDS011;4405;49.272;8.590;2023-03-19T15:29:59;1.20;;;1.20;;
8737;SDS011;4405;49.272;8.590;2023-03-19T15:32:29;1.30;;;1.30;;
8737;SDS011;4405;49.272;8.590;2023-03-19T15:34:57;1.40;;;1.30;;